Time;durP1;ratioP1;P1;durP2;ratioP2;P2;SDS_P1;SDS_P2;PMS_P1;PMS_P2;Temp;Humidity;BMP_temperature;BMP_pressure;BME280_temperature;BME280_humidity;BME280_pressure;Samples;Min_cycle;Max_cycle;Signal;HPM_P1;HPM_P2
2023/10/31 00:02:23;;;;;;;;;;;;;;;12.48;92.94;98834.13;4954402;29;20297;-67
2023/10/31 00:05:26;;;;;;;;;;;;;;;12.42;93.02;98823.34;4954416;29;20286;-67
2023/10/31 00:08:29;;;;;;;;;;;;;;;12.45;92.34;98828.31;4953879;29;20354;-67
2023/10/31 00:11:32;;;;;;;;;;;;;;;12.44;92.40;98831.88;4953983;29;19973;-67
2023/10/31 00:14:34;;;;;;;;;;;;;;;12.39;91.82;98834.91;4953706;29;19995;-67
2023/10/31 00:17:38;;;;;;;;;;;;;;;12.38;91.71;98848.13;4954374;29;20290;-67
2023/10/31 00:20:41;;;;;;;;;;;;;;;12.36;92.00;98839.59;4954288;29;19966;-67
2023/10/31 00:23:45;;;;;;;;;;;;;;;12.32;92.87;98845.09;4953688;29;19925;-67
2023/10/31 00:26:48;;;;;;;;;;;;;;;12.33;92.89;98852.00;4953752;28;19966;-67
2023/10/31 00:29:52;;;;;;;;;;;;;;;12.32;92.41;98850.34;4958365;29;19961;-67
2023/10/31 00:32:55;;;;;;;;;;;;;;;12.27;92.13;98857.75;4958412;29;20375;-67
2023/10/31 00:35:58;;;;;;;;;;;;;;;12.19;92.56;98854.13;4956943;29;19925;-67
2023/10/31 00:39:01;;;;;;;;;;;;;;;12.33;92.87;98856.41;4957434;29;19929;-67
2023/10/31 00:42:05;;;;;;;;;;;;;;;12.29;92.38;98862.88;4958061;29;20010;-67
2023/10/31 00:45:08;;;;;;;;;;;;;;;12.24;91.06;98863.25;4957195;29;19934;-67
2023/10/31 00:48:11;;;;;;;;;;;;;;;12.18;91.55;98866.41;4958088;29;20433;-67
2023/10/31 00:51:14;;;;;;;;;;;;;;;12.23;91.93;98860.78;4957162;29;19925;-67
2023/10/31 00:54:17;;;;;;;;;;;;;;;12.19;90.76;98869.84;4945996;29;19925;-67
2023/10/31 00:57:20;;;;;;;;;;;;;;;12.13;90.63;98870.41;4957677;29;19980;-66
2023/10/31 01:00:24;;;;;;;;;;;;;;;12.11;90.52;98875.75;4957251;29;19966;-67
2023/10/31 01:03:28;;;;;;;;;;;;;;;12.03;90.79;98876.41;4957616;29;19925;-67
2023/10/31 01:06:32;;;;;;;;;;;;;;;12.01;91.39;98883.56;4957775;29;19929;-67
2023/10/31 01:09:35;;;;;;;;;;;;;;;11.89;90.39;98879.34;4956994;29;20299;-67
2023/10/31 01:12:38;;;;;;;;;;;;;;;11.90;90.16;98874.94;4957012;29;19970;-66
2023/10/31 01:15:41;;;;;;;;;;;;;;;11.92;90.30;98883.50;4955728;29;20021;-66
2023/10/31 01:18:44;;;;;;;;;;;;;;;12.05;90.84;98879.72;4956093;29;20006;-66
2023/10/31 01:21:47;;;;;;;;;;;;;;;12.08;90.86;98891.72;4954749;29;19993;-66
2023/10/31 01:24:50;;;;;;;;;;;;;;;12.03;89.91;98886.91;4954932;29;19925;-66
2023/10/31 01:27:53;;;;;;;;;;;;;;;12.00;89.59;98888.94;4954801;29;20465;-66
2023/10/31 01:30:56;;;;;;;;;;;;;;;12.00;89.13;98891.56;4955827;29;19925;-66
2023/10/31 01:33:58;;;;;;;;;;;;;;;11.89;88.97;98889.00;4956892;29;19973;-66
2023/10/31 01:37:02;;;;;;;;;;;;;;;11.86;89.56;98906.63;4956103;29;19925;-66
2023/10/31 01:40:07;;;;;;;;;;;;;;;11.89;89.80;98899.47;4955780;28;19969;-66
2023/10/31 01:43:10;;;;;;;;;;;;;;;11.94;89.97;98897.31;4957164;29;19926;-66
2023/10/31 01:46:13;;;;;;;;;;;;;;;11.64;91.45;98891.00;4956910;29;20386;-66
2023/10/31 01:49:16;;;;;;;;;;;;;;;11.59;91.10;98898.41;4956354;29;19969;-66
2023/10/31 01:52:20;;;;;;;;;;;;;;;11.67;90.19;98906.47;4956291;29;20016;-66
2023/10/31 01:55:27;;;;;;;;;;;;;;;11.68;90.33;98923.84;4956146;29;19925;-66
2023/10/31 01:58:33;;;;;;;;;;;;;;;11.67;89.14;98934.44;4956996;29;19969;-66
2023/10/31 02:01:39;;;;;;;;;;;;;;;11.63;88.96;98931.22;4956064;29;19925;-66
2023/10/31 02:04:45;;;;;;;;;;;;;;;11.64;88.84;98932.88;4957027;29;19930;-66
2023/10/31 02:07:48;;;;;;;;;;;;;;;11.53;89.50;98919.88;4957019;29;20294;-66
2023/10/31 02:10:52;;;;;;;;;;;;;;;11.54;89.28;98926.75;4955672;29;20013;-66
2023/10/31 02:13:55;;;;;;;;;;;;;;;11.56;88.07;98936.16;4956725;29;20029;-66
2023/10/31 02:16:59;;;;;;;;;;;;;;;11.54;88.16;98937.22;4955673;29;19992;-66
2023/10/31 02:20:03;;;;;;;;;;;;;;;11.63;88.09;98942.53;4956689;29;19925;-66
2023/10/31 02:23:07;;;;;;;;;;;;;;;11.61;88.18;98938.38;4956509;29;19925;-66
2023/10/31 02:26:10;;;;;;;;;;;;;;;11.64;88.33;98943.34;4956268;29;19960;-66
2023/10/31 02:29:12;;;;;;;;;;;;;;;11.58;87.55;98943.84;4955744;29;19929;-66
2023/10/31 02:32:15;;;;;;;;;;;;;;;11.53;87.33;98952.09;4955413;29;19990;-66
2023/10/31 02:35:18;;;;;;;;;;;;;;;11.56;88.35;98943.16;4956287;29;20286;-66
2023/10/31 02:38:21;;;;;;;;;;;;;;;11.59;87.23;98956.84;4956097;29;19976;-66
2023/10/31 02:41:36;;;;;;;;;;;;;;;11.74;87.19;98954.75;4956014;29;19953;-66
2023/10/31 02:44:39;;;;;;;;;;;;;;;11.48;87.07;98958.66;4955166;29;20441;-66
2023/10/31 02:47:43;;;;;;;;;;;;;;;11.50;88.01;98962.00;4956099;29;19970;-66
2023/10/31 02:50:46;;;;;;;;;;;;;;;11.49;87.19;98961.16;4955993;28;19925;-66
2023/10/31 02:53:49;;;;;;;;;;;;;;;11.51;87.34;98956.63;4955821;29;20421;-66
2023/10/31 02:56:52;;;;;;;;;;;;;;;11.53;87.52;98954.72;4955923;29;19946;-66
2023/10/31 02:59:55;;;;;;;;;;;;;;;11.61;86.56;98954.94;4955813;29;19926;-66
2023/10/31 03:02:58;;;;;;;;;;;;;;;11.59;85.92;98950.78;4955946;29;19929;-66
2023/10/31 03:06:02;;;;;;;;;;;;;;;11.73;86.21;98947.03;4955440;29;19950;-66
2023/10/31 03:09:06;;;;;;;;;;;;;;;11.52;86.49;98954.81;4955749;29;19992;-66
2023/10/31 03:12:09;;;;;;;;;;;;;;;11.56;86.98;98951.03;4954848;29;20393;-66
2023/10/31 03:15:12;;;;;;;;;;;;;;;11.60;87.04;98966.34;4943859;29;19925;-66
2023/10/31 03:18:15;;;;;;;;;;;;;;;11.70;87.31;98973.44;4955386;29;20342;-66
2023/10/31 03:21:18;;;;;;;;;;;;;;;11.64;88.16;98974.78;4955391;29;20417;-66
2023/10/31 03:24:21;;;;;;;;;;;;;;;11.75;88.55;98982.59;4955451;29;19973;-66
2023/10/31 03:27:24;;;;;;;;;;;;;;;11.82;88.78;98978.50;4954346;29;19925;-66
2023/10/31 03:30:27;;;;;;;;;;;;;;;11.85;86.79;98978.31;4954628;29;19925;-66
2023/10/31 03:33:30;;;;;;;;;;;;;;;11.66;87.42;98980.72;4954355;29;19930;-66
2023/10/31 03:36:33;;;;;;;;;;;;;;;11.55;86.49;98975.50;4954830;29;20559;-66
2023/10/31 03:39:37;;;;;;;;;;;;;;;11.43;86.92;98973.91;4955335;29;19989;-66
2023/10/31 03:42:40;;;;;;;;;;;;;;;11.51;88.62;98992.44;4954979;29;19925;-66
2023/10/31 03:45:43;;;;;;;;;;;;;;;11.45;88.62;98996.38;4955027;29;19977;-66
2023/10/31 03:48:45;;;;;;;;;;;;;;;11.39;87.75;98995.09;4955143;29;19978;-66
2023/10/31 03:51:49;;;;;;;;;;;;;;;11.56;87.78;99003.38;4953998;29;19925;-66
2023/10/31 03:54:52;;;;;;;;;;;;;;;11.62;87.57;99003.72;4955329;29;19974;-66
2023/10/31 03:57:55;;;;;;;;;;;;;;;11.40;86.63;99004.59;4954214;29;19954;-66
2023/10/31 04:00:59;;;;;;;;;;;;;;;11.50;88.13;99003.88;4954384;29;19925;-67
2023/10/31 04:04:03;;;;;;;;;;;;;;;11.48;89.10;99011.81;4954070;29;19949;-66
2023/10/31 04:10:16;;;;;;;;;;;;;;;11.52;88.32;99013.28;4832111;26;19926;-71
2023/10/31 04:13:20;;;;;;;;;;;;;;;11.62;88.42;99026.44;4933594;29;20025;-71
2023/10/31 05:47:12;;;;;;;;;;;;;;;11.30;87.33;99097.88;5725565;23;19934;-66
2023/10/31 05:50:15;;;;;;;;;;;;;;;11.21;87.72;99095.97;4957225;29;19933;-66
2023/10/31 05:53:20;;;;;;;;;;;;;;;11.34;87.04;99086.22;4957135;29;19925;-66
2023/10/31 05:56:24;;;;;;;;;;;;;;;11.28;87.05;99099.78;4957332;29;19951;-67
2023/10/31 05:59:28;;;;;;;;;;;;;;;11.20;87.25;99093.47;4956986;29;19925;-66
2023/10/31 06:02:31;;;;;;;;;;;;;;;11.15;87.74;99097.28;4957282;29;19965;-66
2023/10/31 06:05:34;;;;;;;;;;;;;;;11.22;87.54;99105.47;4957007;29;20115;-66
2023/10/31 06:08:41;;;;;;;;;;;;;;;11.17;87.42;99112.88;4956710;29;19981;-66
2023/10/31 06:11:48;;;;;;;;;;;;;;;11.25;87.95;99110.47;4956827;29;19925;-66
2023/10/31 06:14:51;;;;;;;;;;;;;;;11.21;86.95;99114.28;4956796;29;19973;-67
2023/10/31 06:17:54;;;;;;;;;;;;;;;11.26;86.93;99121.78;4956690;29;19929;-67
2023/10/31 06:20:58;;;;;;;;;;;;;;;11.25;87.12;99128.78;4960440;28;20407;-66
2023/10/31 06:24:02;;;;;;;;;;;;;;;11.37;87.75;99130.47;4975715;28;19940;-72
2023/10/31 06:27:05;;;;;;;;;;;;;;;11.49;85.93;99135.72;4974852;28;20020;-67
2023/10/31 06:30:09;;;;;;;;;;;;;;;11.50;85.83;99139.97;4974518;28;19969;-67
2023/10/31 06:33:11;;;;;;;;;;;;;;;11.46;85.41;99144.63;4974413;28;20025;-66
2023/10/31 06:36:15;;;;;;;;;;;;;;;11.47;85.35;99137.59;4974347;28;20072;-66
2023/10/31 06:39:18;;;;;;;;;;;;;;;11.45;85.66;99147.34;4974226;28;19925;-67
2023/10/31 06:42:21;;;;;;;;;;;;;;;11.46;85.24;99149.03;4974460;28;20404;-66
2023/10/31 06:45:23;;;;;;;;;;;;;;;11.63;84.22;99156.38;4974048;28;19924;-66
2023/10/31 06:48:28;;;;;;;;;;;;;;;11.51;84.63;99168.63;4953608;28;20202;-67
2023/10/31 06:51:31;;;;;;;;;;;;;;;11.68;83.89;99180.44;4955004;29;19925;-68
2023/10/31 06:54:34;;;;;;;;;;;;;;;11.55;84.49;99187.56;4954728;29;20476;-67
2023/10/31 06:57:38;;;;;;;;;;;;;;;11.81;83.81;99190.78;4955077;29;19965;-67
2023/10/31 07:00:41;;;;;;;;;;;;;;;11.90;83.89;99205.81;4954515;29;19924;-67
2023/10/31 07:03:44;;;;;;;;;;;;;;;11.67;83.57;99210.16;4954600;29;20445;-67
2023/10/31 07:06:47;;;;;;;;;;;;;;;11.76;82.81;99214.69;4954625;29;19934;-67
2023/10/31 07:10:20;;;;;;;;;;;;;;;11.71;84.03;99226.47;4953757;29;19930;-67
2023/10/31 07:13:23;;;;;;;;;;;;;;;11.59;83.97;99225.66;4954290;29;19970;-67
2023/10/31 07:16:26;;;;;;;;;;;;;;;11.39;84.71;99227.16;4954455;29;19925;-67
2023/10/31 07:19:29;;;;;;;;;;;;;;;11.46;85.13;99244.09;4953946;29;20013;-67
2023/10/31 07:22:34;;;;;;;;;;;;;;;11.24;86.28;99244.06;4954024;29;19985;-67
2023/10/31 07:25:37;;;;;;;;;;;;;;;11.24;86.75;99244.88;4953710;29;20436;-67
2023/10/31 07:28:40;;;;;;;;;;;;;;;11.37;86.97;99245.63;4953876;29;20010;-67
2023/10/31 07:31:43;;;;;;;;;;;;;;;11.33;85.61;99249.41;4951534;29;19973;-67
2023/10/31 07:34:46;;;;;;;;;;;;;;;11.05;87.51;99260.28;4953311;29;20041;-68
2023/10/31 07:37:50;;;;;;;;;;;;;;;11.14;87.91;99260.44;4952529;28;19929;-66
2023/10/31 07:40:52;;;;;;;;;;;;;;;11.16;87.33;99268.16;4953623;29;19973;-67
2023/10/31 07:43:55;;;;;;;;;;;;;;;11.00;88.51;99272.88;4953600;29;20062;-65
2023/10/31 07:46:58;;;;;;;;;;;;;;;11.02;89.19;99265.75;4953762;29;19941;-64
2023/10/31 07:50:01;;;;;;;;;;;;;;;11.10;89.68;99276.47;4953854;29;19985;-64
2023/10/31 07:53:05;;;;;;;;;;;;;;;11.36;91.18;99283.22;4953955;29;20020;-68
2023/10/31 07:56:22;;;;;;;;;;;;;;;11.74;90.07;99279.47;4954126;29;19925;-84
2023/10/31 07:59:27;;;;;;;;;;;;;;;11.94;89.07;99274.50;4954171;29;19934;-79
2023/10/31 08:26:06;;;;;;;;;;;;;;;12.18;85.03;99288.28;4953735;29;19941;-64
2023/10/31 08:29:09;;;;;;;;;;;;;;;12.02;83.30;99293.06;4953607;29;19985;-64
2023/10/31 08:32:12;;;;;;;;;;;;;;;12.02;83.88;99304.38;4953513;29;19929;-64
2023/10/31 08:35:15;;;;;;;;;;;;;;;11.98;84.05;99310.81;4953828;29;20000;-64
2023/10/31 08:38:18;;;;;;;;;;;;;;;11.93;83.08;99319.97;4953586;29;19965;-64
2023/10/31 08:41:22;;;;;;;;;;;;;;;12.05;83.17;99321.63;4953720;29;19926;-64
2023/10/31 08:44:25;;;;;;;;;;;;;;;12.10;82.71;99316.88;4953644;29;19931;-64
2023/10/31 08:47:28;;;;;;;;;;;;;;;12.01;84.21;99330.69;4953442;29;19980;-65
2023/10/31 08:50:31;;;;;;;;;;;;;;;11.86;82.33;99327.47;4957248;29;19997;-64
2023/10/31 08:53:34;;;;;;;;;;;;;;;12.03;81.66;99326.19;4957219;29;19933;-64
2023/10/31 08:56:37;;;;;;;;;;;;;;;12.10;80.79;99330.00;4957051;29;20277;-64
2023/10/31 08:59:41;;;;;;;;;;;;;;;12.03;81.75;99337.50;4956767;29;19925;-64
2023/10/31 09:02:44;;;;;;;;;;;;;;;12.11;81.68;99339.50;4956759;29;19940;-64
2023/10/31 09:05:47;;;;;;;;;;;;;;;12.13;80.82;99340.22;4956797;29;19942;-64
2023/10/31 09:08:50;;;;;;;;;;;;;;;12.25;81.65;99351.53;4956722;29;19929;-64
2023/10/31 09:11:53;;;;;;;;;;;;;;;12.30;82.19;99352.03;4956697;29;19925;-82
2023/10/31 09:14:56;;;;;;;;;;;;;;;12.19;79.38;99363.34;4956654;29;19925;-63
2023/10/31 09:17:59;;;;;;;;;;;;;;;11.99;80.11;99366.66;4956269;29;20043;-63
2023/10/31 09:21:02;;;;;;;;;;;;;;;11.99;79.66;99377.97;4956320;29;20091;-64
2023/10/31 09:24:07;;;;;;;;;;;;;;;11.82;79.82;99381.00;4956381;29;19929;-63
2023/10/31 09:27:10;;;;;;;;;;;;;;;11.93;80.05;99383.66;4956219;29;19961;-63
2023/10/31 09:30:13;;;;;;;;;;;;;;;12.01;79.54;99397.03;4956461;29;20290;-66
2023/10/31 09:33:16;;;;;;;;;;;;;;;11.95;79.67;99391.41;4955896;29;20002;-64
2023/10/31 09:36:19;;;;;;;;;;;;;;;11.88;79.30;99390.22;4956138;29;20009;-65
2023/10/31 09:39:25;;;;;;;;;;;;;;;12.02;79.66;99408.34;4956232;29;19946;-65
2023/10/31 09:42:28;;;;;;;;;;;;;;;11.92;78.94;99405.56;4956097;29;20020;-64
2023/10/31 09:45:32;;;;;;;;;;;;;;;12.37;81.37;99404.78;4956325;29;19961;-74
2023/10/31 09:48:35;;;;;;;;;;;;;;;12.07;77.65;99393.94;4955851;29;20441;-64
2023/10/31 09:51:38;;;;;;;;;;;;;;;12.17;78.85;99399.31;4956095;29;19980;-65
2023/10/31 09:54:42;;;;;;;;;;;;;;;12.02;79.07;99408.34;4955855;29;20020;-66
2023/10/31 09:57:45;;;;;;;;;;;;;;;11.83;78.88;99404.44;4956093;29;19925;-66
2023/10/31 10:00:48;;;;;;;;;;;;;;;11.73;79.30;99413.13;4954749;28;19926;-64
2023/10/31 10:03:53;;;;;;;;;;;;;;;11.81;78.99;99402.91;4955584;29;19964;-64
2023/10/31 10:07:01;;;;;;;;;;;;;;;11.95;78.27;99415.00;4955099;29;19957;-64
2023/10/31 10:10:04;;;;;;;;;;;;;;;11.83;78.87;99398.38;4955599;29;20338;-64
2023/10/31 10:13:08;;;;;;;;;;;;;;;11.91;78.33;99405.72;4955441;29;19941;-63
2023/10/31 10:16:12;;;;;;;;;;;;;;;12.04;78.37;99406.44;4955420;29;19997;-63
2023/10/31 10:19:16;;;;;;;;;;;;;;;12.23;78.44;99401.47;4946931;29;19978;-66
2023/10/31 10:22:20;;;;;;;;;;;;;;;12.16;77.34;99395.03;4942071;29;19969;-67
2023/10/31 10:25:23;;;;;;;;;;;;;;;12.39;76.89;99410.75;4943636;29;19925;-67
2023/10/31 10:28:29;;;;;;;;;;;;;;;12.43;77.41;99407.78;4943422;29;19980;-67
2023/10/31 10:31:33;;;;;;;;;;;;;;;12.35;76.67;99407.56;4945046;29;19985;-67
2023/10/31 10:34:36;;;;;;;;;;;;;;;12.48;75.59;99410.88;4945301;29;20290;-67
2023/10/31 10:37:39;;;;;;;;;;;;;;;12.61;75.79;99421.25;4942342;29;19950;-67
2023/10/31 10:40:44;;;;;;;;;;;;;;;12.71;75.97;99406.44;4942961;29;19946;-72
2023/10/31 10:43:49;;;;;;;;;;;;;;;12.70;75.31;99425.78;4944298;29;19926;-70
2023/10/31 10:46:55;;;;;;;;;;;;;;;12.92;74.24;99426.69;4945086;29;20350;-69
2023/10/31 10:50:00;;;;;;;;;;;;;;;12.60;74.89;99430.06;4909058;29;19934;-69
2023/10/31 10:53:08;;;;;;;;;;;;;;;12.41;75.05;99420.19;4916946;29;20335;-68
2023/10/31 10:56:16;;;;;;;;;;;;;;;12.55;74.68;99416.47;4916678;29;20002;-67
2023/10/31 10:59:20;;;;;;;;;;;;;;;12.43;74.65;99430.53;4916673;29;20002;-67
2023/10/31 11:02:24;;;;;;;;;;;;;;;12.39;74.91;99416.00;4917006;29;20410;-67
2023/10/31 11:05:30;;;;;;;;;;;;;;;12.49;73.79;99422.19;4917047;29;19994;-67
2023/10/31 11:08:33;;;;;;;;;;;;;;;12.31;74.09;99417.41;4916554;29;19945;-67
2023/10/31 11:11:37;;;;;;;;;;;;;;;12.39;74.17;99422.09;4916122;29;19958;-67
2023/10/31 11:14:41;;;;;;;;;;;;;;;12.43;73.94;99417.44;4916059;29;19926;-67
2023/10/31 11:17:45;;;;;;;;;;;;;;;12.40;72.93;99418.50;4913599;29;20416;-67
2023/10/31 11:20:49;;;;;;;;;;;;;;;12.38;72.67;99412.56;4896775;29;19966;-66
2023/10/31 11:23:59;;;;;;;;;;;;;;;12.52;72.57;99424.59;4897376;29;19926;-67
2023/10/31 11:27:03;;;;;;;;;;;;;;;12.53;71.65;99419.22;4897354;29;19926;-66
2023/10/31 11:30:07;;;;;;;;;;;;;;;12.44;72.84;99432.19;4897248;29;19983;-66
2023/10/31 11:33:13;;;;;;;;;;;;;;;12.82;71.57;99444.94;4897730;29;19931;-67
2023/10/31 11:36:19;;;;;;;;;;;;;;;12.69;71.66;99431.97;4896660;29;19967;-67
2023/10/31 11:39:26;;;;;;;;;;;;;;;12.71;71.53;99427.44;4895916;29;20408;-67
2023/10/31 11:42:31;;;;;;;;;;;;;;;13.06;71.32;99420.34;4897533;29;20051;-67
2023/10/31 11:45:37;;;;;;;;;;;;;;;13.02;70.38;99419.78;4897426;29;20007;-67
2023/10/31 11:48:48;;;;;;;;;;;;;;;13.04;71.46;99423.09;4917014;29;20041;-67
2023/10/31 11:51:51;;;;;;;;;;;;;;;12.90;71.70;99423.38;4934981;29;19963;-66
2023/10/31 11:54:55;;;;;;;;;;;;;;;13.08;71.33;99416.66;4935024;29;20033;-76
2023/10/31 11:57:58;;;;;;;;;;;;;;;12.98;70.23;99418.31;4934670;29;20295;-65
2023/10/31 12:01:03;;;;;;;;;;;;;;;13.02;70.59;99425.84;4942638;29;20353;-65
2023/10/31 12:04:06;;;;;;;;;;;;;;;13.11;69.36;99418.19;4953842;29;20421;-64
2023/10/31 12:07:09;;;;;;;;;;;;;;;13.04;70.00;99418.66;4954775;29;19945;-66
2023/10/31 12:10:12;;;;;;;;;;;;;;;13.15;70.41;99414.38;4954144;29;19930;-72
2023/10/31 12:13:15;;;;;;;;;;;;;;;13.12;69.70;99423.31;4954103;29;19998;-65
2023/10/31 12:16:18;;;;;;;;;;;;;;;13.11;69.26;99413.75;4953774;29;20046;-65
2023/10/31 12:19:22;;;;;;;;;;;;;;;13.29;69.42;99431.66;4953709;29;20012;-64
2023/10/31 12:22:25;;;;;;;;;;;;;;;13.16;69.18;99424.72;4953873;28;19968;-65
2023/10/31 12:25:28;;;;;;;;;;;;;;;13.07;69.63;99437.75;4957653;29;20013;-64
2023/10/31 12:28:31;;;;;;;;;;;;;;;12.96;69.69;99438.63;4957684;29;19977;-68
2023/10/31 12:31:34;;;;;;;;;;;;;;;13.00;70.00;99448.75;4957501;29;19941;-65
2023/10/31 12:34:43;;;;;;;;;;;;;;;12.98;70.08;99455.06;4957507;29;19961;-65
2023/10/31 12:37:47;;;;;;;;;;;;;;;13.15;70.00;99462.44;4957508;29;19974;-66
2023/10/31 12:40:50;;;;;;;;;;;;;;;13.26;70.17;99461.59;4957201;29;19970;-65
2023/10/31 12:43:53;;;;;;;;;;;;;;;13.14;70.84;99455.50;4957215;29;20310;-66
2023/10/31 12:46:57;;;;;;;;;;;;;;;13.32;71.17;99458.50;4956805;29;19941;-66
2023/10/31 12:50:07;;;;;;;;;;;;;;;13.30;70.21;99454.31;4938166;29;20066;-66
2023/10/31 12:53:11;;;;;;;;;;;;;;;13.22;70.10;99453.13;4938063;29;20262;-66
2023/10/31 12:56:33;;;;;;;;;;;;;;;13.26;70.31;99459.81;4938324;29;19929;-66
2023/10/31 12:59:37;;;;;;;;;;;;;;;13.54;70.38;99467.25;4933560;29;19926;-66
2023/10/31 13:02:41;;;;;;;;;;;;;;;13.61;67.87;99457.91;4918300;29;20259;-66
2023/10/31 13:05:46;;;;;;;;;;;;;;;13.64;66.64;99463.75;4918113;29;20283;-66
2023/10/31 13:08:48;;;;;;;;;;;;;;;13.76;65.62;99467.16;4918741;29;19979;-66
2023/10/31 13:11:51;;;;;;;;;;;;;;;13.60;65.92;99457.09;4918746;29;19941;-67
2023/10/31 13:14:54;;;;;;;;;;;;;;;13.95;65.92;99464.69;4912469;29;19951;-66
2023/10/31 13:17:57;;;;;;;;;;;;;;;14.15;64.85;99462.19;4915880;29;19929;-66
2023/10/31 13:21:00;;;;;;;;;;;;;;;14.16;64.58;99459.41;4937454;29;20017;-66
2023/10/31 13:24:03;;;;;;;;;;;;;;;14.05;64.35;99458.66;4937347;29;19934;-67
2023/10/31 13:27:08;;;;;;;;;;;;;;;14.04;64.98;99470.13;4937125;29;19962;-76
2023/10/31 13:30:11;;;;;;;;;;;;;;;14.36;63.08;99465.63;4938322;29;20484;-71
2023/10/31 13:33:14;;;;;;;;;;;;;;;14.54;60.88;99465.06;4937172;29;20434;-66
2023/10/31 13:36:18;;;;;;;;;;;;;;;14.36;61.22;99470.06;4937206;29;19926;-71
2023/10/31 13:39:22;;;;;;;;;;;;;;;14.21;61.70;99466.09;4937501;29;20263;-66
2023/10/31 13:42:25;;;;;;;;;;;;;;;14.04;62.65;99470.97;4926323;29;20022;-66
2023/10/31 13:45:29;;;;;;;;;;;;;;;14.26;64.38;99469.16;4926971;29;19926;-70
2023/10/31 13:48:32;;;;;;;;;;;;;;;14.67;61.72;99463.03;4928621;29;20001;-65
2023/10/31 13:51:35;;;;;;;;;;;;;;;14.75;60.91;99475.53;4944646;29;19925;-66
2023/10/31 13:54:38;;;;;;;;;;;;;;;14.65;60.74;99475.50;4942510;29;19972;-65
2023/10/31 13:57:41;;;;;;;;;;;;;;;14.70;62.01;99472.47;4943488;29;19984;-68
2023/10/31 14:00:45;;;;;;;;;;;;;;;14.94;60.97;99474.78;4944387;29;19933;-65
2023/10/31 14:03:50;;;;;;;;;;;;;;;14.77;60.68;99489.38;4945453;29;19925;-64
2023/10/31 14:06:53;;;;;;;;;;;;;;;14.55;60.72;99493.00;4946444;29;20030;-65
2023/10/31 14:09:56;;;;;;;;;;;;;;;14.38;60.81;99492.63;4945972;29;19937;-65
2023/10/31 14:12:59;;;;;;;;;;;;;;;14.44;60.87;99496.53;4945050;29;19978;-64
2023/10/31 14:16:03;;;;;;;;;;;;;;;14.24;61.54;99490.34;4943214;29;19978;-64
2023/10/31 14:19:09;;;;;;;;;;;;;;;13.99;62.47;99496.78;4949058;29;19969;-64
2023/10/31 14:22:13;;;;;;;;;;;;;;;13.85;63.23;99499.75;4936373;29;19968;-64
2023/10/31 14:25:17;;;;;;;;;;;;;;;13.90;62.94;99505.44;4938484;29;19974;-64
2023/10/31 14:28:20;;;;;;;;;;;;;;;13.78;63.69;99514.31;4947348;29;20358;-64
2023/10/31 14:31:23;;;;;;;;;;;;;;;13.87;63.16;99516.19;4936252;29;20358;-64
2023/10/31 14:34:25;;;;;;;;;;;;;;;13.86;64.17;99520.63;4939320;29;19972;-64
2023/10/31 14:37:28;;;;;;;;;;;;;;;14.13;64.14;99516.66;4955193;29;19929;-64
2023/10/31 14:40:31;;;;;;;;;;;;;;;13.99;64.00;99520.44;4955460;29;19933;-64
2023/10/31 14:43:34;;;;;;;;;;;;;;;13.82;65.12;99518.38;4955094;29;20290;-64
2023/10/31 14:46:37;;;;;;;;;;;;;;;13.77;65.18;99525.81;4954469;28;20417;-63
2023/10/31 14:49:41;;;;;;;;;;;;;;;13.78;65.87;99527.47;4949417;29;19985;-65
2023/10/31 14:52:44;;;;;;;;;;;;;;;13.69;65.77;99526.44;4951754;29;19925;-64
2023/10/31 14:55:47;;;;;;;;;;;;;;;13.61;66.46;99521.78;4954053;29;19941;-64
2023/10/31 14:58:50;;;;;;;;;;;;;;;13.43;67.46;99532.00;4954681;29;19972;-64
2023/10/31 15:01:53;;;;;;;;;;;;;;;13.44;67.90;99536.28;4954686;29;19926;-65
2023/10/31 15:04:56;;;;;;;;;;;;;;;13.36;68.42;99543.09;4946898;29;19937;-64
2023/10/31 15:08:00;;;;;;;;;;;;;;;13.35;68.21;99547.50;4954137;29;19941;-64
2023/10/31 15:11:03;;;;;;;;;;;;;;;13.40;68.73;99544.50;4954217;29;20003;-64
2023/10/31 15:14:06;;;;;;;;;;;;;;;13.36;68.83;99553.59;4954211;29;20065;-69
2023/10/31 15:17:09;;;;;;;;;;;;;;;13.19;68.91;99563.59;4954347;29;20251;-65
2023/10/31 15:20:13;;;;;;;;;;;;;;;13.11;69.35;99544.16;4954404;29;20149;-64
2023/10/31 15:23:16;;;;;;;;;;;;;;;13.23;69.57;99549.28;4954814;29;20279;-65
2023/10/31 15:26:19;;;;;;;;;;;;;;;13.25;69.96;99551.81;4954995;29;19925;-65
2023/10/31 15:29:23;;;;;;;;;;;;;;;13.09;70.89;99556.59;4954346;29;20013;-65
2023/10/31 15:32:26;;;;;;;;;;;;;;;13.01;70.89;99565.03;4954462;29;19929;-65
2023/10/31 15:35:29;;;;;;;;;;;;;;;13.19;70.29;99563.59;4953967;29;19925;-65
2023/10/31 15:38:33;;;;;;;;;;;;;;;13.25;72.28;99563.16;4954281;29;19929;-65
2023/10/31 15:41:36;;;;;;;;;;;;;;;13.25;73.97;99567.56;4954579;29;19941;-64
2023/10/31 15:44:39;;;;;;;;;;;;;;;13.08;76.23;99568.88;4954106;29;19972;-64
2023/10/31 15:47:43;;;;;;;;;;;;;;;12.94;77.71;99572.53;4952734;29;19925;-64
2023/10/31 15:50:46;;;;;;;;;;;;;;;12.82;78.02;99575.28;4953299;29;20294;-64
2023/10/31 15:53:49;;;;;;;;;;;;;;;12.78;79.49;99575.50;4954265;29;20326;-65
2023/10/31 15:56:53;;;;;;;;;;;;;;;12.82;77.35;99588.41;4953849;29;19946;-65
2023/10/31 15:59:56;;;;;;;;;;;;;;;12.66;79.59;99592.19;4953161;29;19993;-71
2023/10/31 16:03:00;;;;;;;;;;;;;;;12.71;79.64;99602.34;4953881;29;19977;-74
2023/10/31 16:06:04;;;;;;;;;;;;;;;12.79;79.86;99607.81;4952590;29;19926;-65
2023/10/31 16:09:08;;;;;;;;;;;;;;;12.92;78.93;99612.97;4954975;29;19945;-64
2023/10/31 16:12:11;;;;;;;;;;;;;;;12.92;78.32;99610.34;4954359;29;19965;-73
2023/10/31 16:15:15;;;;;;;;;;;;;;;12.81;77.51;99616.41;4955297;29;19928;-70
2023/10/31 16:18:18;;;;;;;;;;;;;;;12.89;78.64;99623.69;4955135;29;20399;-67
2023/10/31 16:21:21;;;;;;;;;;;;;;;13.00;76.91;99627.19;4955154;29;19934;-69
2023/10/31 16:24:25;;;;;;;;;;;;;;;12.97;78.89;99629.19;4955125;29;20342;-65
2023/10/31 16:27:28;;;;;;;;;;;;;;;12.96;76.00;99627.53;4955058;29;20051;-65
2023/10/31 16:30:31;;;;;;;;;;;;;;;12.95;77.88;99638.97;4955046;29;19929;-66
2023/10/31 16:33:35;;;;;;;;;;;;;;;13.03;78.99;99642.69;4954999;29;19973;-64
2023/10/31 16:36:38;;;;;;;;;;;;;;;13.07;79.53;99648.53;4954997;29;19926;-68
2023/10/31 16:39:41;;;;;;;;;;;;;;;13.00;78.60;99657.84;4954996;29;19926;-66
2023/10/31 16:42:45;;;;;;;;;;;;;;;12.98;80.95;99657.09;4954986;29;20005;-66
2023/10/31 16:45:48;;;;;;;;;;;;;;;12.95;78.72;99654.72;4954848;29;19974;-66
2023/10/31 16:48:51;;;;;;;;;;;;;;;12.72;83.67;99654.66;4954777;29;19969;-80
2023/10/31 16:51:57;;;;;;;;;;;;;;;12.65;85.55;99650.00;4954623;29;19965;-86
2023/10/31 16:55:01;;;;;;;;;;;;;;;12.54;86.45;99659.50;4954836;29;20286;-81
2023/10/31 16:58:09;;;;;;;;;;;;;;;12.49;86.92;99655.56;4954791;29;19949;-77
2023/10/31 17:01:13;;;;;;;;;;;;;;;12.41;88.05;99658.75;4954743;29;19941;-77
2023/10/31 17:04:17;;;;;;;;;;;;;;;12.48;88.30;99664.38;4954787;29;20020;-66
2023/10/31 17:07:20;;;;;;;;;;;;;;;12.60;87.12;99663.44;4954779;29;20047;-65
2023/10/31 17:10:23;;;;;;;;;;;;;;;12.60;85.11;99665.22;4956959;28;19929;-65
2023/10/31 17:13:26;;;;;;;;;;;;;;;12.64;85.66;99667.53;4958377;29;20293;-65
2023/10/31 17:16:29;;;;;;;;;;;;;;;12.72;86.07;99669.56;4957940;29;20021;-65
2023/10/31 17:19:32;;;;;;;;;;;;;;;12.76;85.80;99663.13;4958187;29;20013;-66
2023/10/31 17:22:38;;;;;;;;;;;;;;;12.74;86.34;99679.00;4957979;29;19941;-65
2023/10/31 17:25:42;;;;;;;;;;;;;;;12.64;87.20;99680.66;4957857;29;20009;-65
2023/10/31 17:28:45;;;;;;;;;;;;;;;12.71;87.30;99683.66;4957634;29;20390;-65
2023/10/31 17:31:48;;;;;;;;;;;;;;;12.68;87.17;99683.88;4958039;29;19929;-65
2023/10/31 17:34:51;;;;;;;;;;;;;;;12.69;87.76;99688.16;4957673;29;19925;-65
2023/10/31 17:37:54;;;;;;;;;;;;;;;12.68;87.06;99692.56;4957652;29;19945;-65
2023/10/31 17:41:00;;;;;;;;;;;;;;;12.74;87.41;99696.53;4957606;29;19925;-65
2023/10/31 17:44:05;;;;;;;;;;;;;;;12.57;88.28;99703.00;4957028;29;19977;-66
2023/10/31 17:47:08;;;;;;;;;;;;;;;12.59;87.99;99703.75;4957267;29;19925;-65
2023/10/31 17:50:11;;;;;;;;;;;;;;;12.67;88.54;99711.91;4957167;29;20062;-66
2023/10/31 17:53:15;;;;;;;;;;;;;;;12.61;86.62;99706.28;4957507;29;19928;-65
2023/10/31 17:56:19;;;;;;;;;;;;;;;12.49;90.13;99713.25;4957241;29;19962;-66